createdAt,value
2023-03-12T00:00:54.075Z,82.11
2023-03-12T00:06:11.292Z,82.17
2023-03-12T00:11:17.976Z,82.27
2023-03-12T00:16:22.177Z,82.23
2023-03-12T00:21:24.729Z,82.01
2023-03-12T00:26:26.918Z,81.86
2023-03-12T00:31:32.350Z,81.64
2023-03-12T00:36:34.359Z,81.38
2023-03-12T00:41:36.160Z,81.25
2023-03-12T00:46:38.037Z,81.31
2023-03-12T00:51:39.895Z,81.47
2023-03-12T00:56:41.649Z,81.71
2023-03-12T01:01:43.847Z,81.71
2023-03-12T01:06:45.715Z,81.86
2023-03-12T01:11:47.385Z,82.00
2023-03-12T01:16:50.865Z,82.05
2023-03-12T01:21:54.213Z,82.17
2023-03-12T01:26:56.201Z,82.31
2023-03-12T01:31:57.981Z,82.42
2023-03-12T01:36:59.649Z,82.53
2023-03-12T01:42:01.835Z,82.66
2023-03-12T01:47:03.600Z,82.64
2023-03-12T01:52:12.083Z,82.65
2023-03-12T01:57:51.899Z,82.56
2023-03-12T02:03:00.113Z,82.46
2023-03-12T02:08:01.809Z,82.43
2023-03-12T02:13:03.519Z,82.54
2023-03-12T02:18:09.132Z,82.61
2023-03-12T02:23:21.265Z,82.77
2023-03-12T02:28:29.102Z,83.05
2023-03-12T02:33:30.741Z,84.24
2023-03-12T02:38:41.833Z,84.86
2023-03-12T02:44:12.449Z,85.17
2023-03-12T02:49:16.572Z,84.76
2023-03-12T02:54:22.593Z,84.82
2023-03-12T02:59:28.266Z,85.43
2023-03-12T03:04:34.437Z,87.08
2023-03-12T03:09:36.236Z,87.57
2023-03-12T03:14:38.000Z,87.19
2023-03-12T03:19:39.707Z,86.65
2023-03-12T03:24:41.751Z,86.13
2023-03-12T03:29:46.095Z,85.65
2023-03-12T03:34:47.888Z,85.25
2023-03-12T03:39:49.729Z,84.75
2023-03-12T03:44:51.326Z,83.39
2023-03-12T03:49:52.979Z,82.64
2023-03-12T03:54:56.597Z,81.68
2023-03-12T04:00:03.516Z,81.40
2023-03-12T04:05:06.611Z,81.06
2023-03-12T04:10:09.697Z,81.14
2023-03-12T04:15:11.471Z,81.39
2023-03-12T04:20:14.015Z,81.69
2023-03-12T04:25:16.045Z,81.83
2023-03-12T04:30:17.847Z,81.83
2023-03-12T04:35:20.529Z,81.60
2023-03-12T04:40:22.396Z,81.66
2023-03-12T04:45:24.177Z,81.72
2023-03-12T04:50:25.949Z,81.61
2023-03-12T04:55:27.628Z,81.69
2023-03-12T05:00:29.784Z,81.79
2023-03-12T05:05:31.690Z,81.84
2023-03-12T05:10:34.190Z,81.90
2023-03-12T05:15:37.089Z,81.57
2023-03-12T05:20:39.886Z,81.32
2023-03-12T05:25:41.550Z,81.11
2023-03-12T05:30:43.242Z,81.06
2023-03-12T05:35:44.916Z,81.09
2023-03-12T05:40:55.501Z,81.11
2023-03-12T05:46:04.808Z,81.10
2023-03-12T05:51:06.916Z,80.80
2023-03-12T05:56:14.262Z,80.57
2023-03-12T06:01:23.659Z,80.24
2023-03-12T06:06:25.757Z,79.78
2023-03-12T06:11:27.529Z,79.29
2023-03-12T06:16:29.654Z,78.79
2023-03-12T06:21:35.723Z,78.26
2023-03-12T06:26:38.073Z,77.90
2023-03-12T06:31:41.613Z,77.30
2023-03-12T06:36:44.184Z,77.07
2023-03-12T06:41:45.878Z,76.68
2023-03-12T06:46:48.209Z,75.75
2023-03-12T06:51:50.661Z,74.85
2023-03-12T06:56:52.724Z,74.58
2023-03-12T07:01:54.959Z,74.47
2023-03-12T07:06:56.899Z,74.34
2023-03-12T07:11:58.667Z,73.72
2023-03-12T07:17:02.008Z,72.94
2023-03-12T07:22:04.077Z,72.75
2023-03-12T07:27:06.051Z,72.82
2023-03-12T07:32:08.078Z,72.70
2023-03-12T07:37:09.917Z,72.33
2023-03-12T07:42:12.416Z,71.26
2023-03-12T07:47:23.617Z,71.55
2023-03-12T07:52:26.633Z,71.11
2023-03-12T07:57:28.728Z,71.25
2023-03-12T08:02:30.693Z,70.25
2023-03-12T08:07:34.698Z,70.79
2023-03-12T08:12:37.330Z,69.40
2023-03-12T08:17:40.397Z,68.82
2023-03-12T08:22:42.185Z,68.60
2023-03-12T08:27:44.030Z,68.61
2023-03-12T08:32:46.550Z,68.60
2023-03-12T08:37:48.431Z,68.42
2023-03-12T08:42:50.279Z,67.92
2023-03-12T08:47:52.262Z,69.09
2023-03-12T08:52:54.025Z,68.96
2023-03-12T08:57:57.134Z,68.43
2023-03-12T09:02:59.144Z,67.27
2023-03-12T09:08:00.991Z,66.82
2023-03-12T09:13:04.338Z,67.23
2023-03-12T09:18:06.188Z,66.93
2023-03-12T09:23:07.972Z,65.05
2023-03-12T09:28:09.933Z,63.90
2023-03-12T09:33:14.609Z,63.25
2023-03-12T09:38:16.346Z,62.36
2023-03-12T09:43:37.070Z,62.19
2023-03-12T09:48:40.171Z,61.02
2023-03-12T09:53:48.753Z,61.47
2023-03-12T09:58:54.167Z,60.54
2023-03-12T10:04:14.329Z,59.83
2023-03-12T10:09:34.196Z,59.19
2023-03-12T10:15:25.924Z,58.57
2023-03-12T10:20:51.161Z,60.01
2023-03-12T10:26:17.921Z,64.03
2023-03-12T10:31:30.725Z,76.28
2023-03-12T10:36:41.019Z,79.89
2023-03-12T10:41:46.596Z,79.14
2023-03-12T10:47:33.223Z,77.36
2023-03-12T10:52:35.063Z,74.73
2023-03-12T10:57:42.108Z,71.06
2023-03-12T11:02:48.245Z,68.75
2023-03-12T11:07:50.929Z,66.66
2023-03-12T11:13:02.244Z,63.07
2023-03-12T11:18:31.739Z,61.60
2023-03-12T11:23:34.335Z,56.94
2023-03-12T11:28:45.940Z,54.64
2023-03-12T11:33:48.176Z,54.31
2023-03-12T11:39:06.476Z,54.40
2023-03-12T11:44:38.676Z,57.92
2023-03-12T11:50:08.753Z,59.49
2023-03-12T11:55:25.997Z,58.33
2023-03-12T12:00:51.234Z,57.56
2023-03-12T12:06:43.306Z,55.74
2023-03-12T12:12:06.144Z,54.71
2023-03-12T12:17:23.694Z,54.08
2023-03-12T12:22:42.564Z,53.24
2023-03-12T12:27:59.907Z,52.51
2023-03-12T12:33:35.790Z,51.26
2023-03-12T12:38:46.869Z,51.17
2023-03-12T12:43:57.662Z,51.56
2023-03-12T12:49:23.409Z,51.43
2023-03-12T12:54:44.433Z,52.24
2023-03-12T13:00:10.677Z,51.60
2023-03-12T13:05:36.421Z,51.76
2023-03-12T13:10:48.775Z,52.10
2023-03-12T13:16:42.223Z,51.60
2023-03-12T13:22:16.978Z,52.39
2023-03-12T13:27:45.808Z,51.51
2023-03-12T13:32:47.387Z,52.60
2023-03-12T13:37:52.213Z,52.26
2023-03-12T13:43:09.435Z,52.71
2023-03-12T13:48:17.665Z,53.44
2023-03-12T13:53:46.783Z,55.06
2023-03-12T13:59:02.171Z,54.83
2023-03-12T14:04:11.825Z,54.54
2023-03-12T14:09:40.457Z,53.67
2023-03-12T14:15:06.996Z,51.63
2023-03-12T14:20:22.610Z,50.94
2023-03-12T14:25:43.165Z,49.78
2023-03-12T14:31:12.383Z,49.65
2023-03-12T14:36:27.511Z,49.70
2023-03-12T14:41:35.066Z,49.45
2023-03-12T14:46:36.867Z,50.14
2023-03-12T14:51:39.565Z,49.51
2023-03-12T14:56:44.176Z,50.10
2023-03-12T15:01:47.912Z,50.87
2023-03-12T15:06:58.535Z,50.06
2023-03-12T15:12:28.883Z,50.90
2023-03-12T15:17:31.893Z,50.92
2023-03-12T15:22:35.711Z,52.26
2023-03-12T15:27:37.486Z,51.90
2023-03-12T15:32:39.597Z,52.24
2023-03-12T15:37:52.812Z,52.88
2023-03-12T15:43:01.339Z,53.28
2023-03-12T15:48:24.770Z,54.01
2023-03-12T15:53:31.715Z,54.35
2023-03-12T15:58:38.621Z,54.62
2023-03-12T16:03:44.908Z,55.21
2023-03-12T16:08:58.250Z,55.67
2023-03-12T16:14:17.134Z,55.37
2023-03-12T16:19:22.907Z,56.53
2023-03-12T16:24:24.778Z,57.92
2023-03-12T16:29:37.716Z,59.29
2023-03-12T16:34:40.105Z,59.25
2023-03-12T16:39:45.961Z,58.37
2023-03-12T16:44:48.268Z,59.25
2023-03-12T16:49:50.546Z,60.92
2023-03-12T16:54:52.721Z,61.76
2023-03-12T16:59:54.814Z,62.76
2023-03-12T17:04:56.885Z,63.08
2023-03-12T17:09:58.884Z,63.13
2023-03-12T17:15:04.560Z,63.99
2023-03-12T17:20:09.694Z,64.13
2023-03-12T17:25:28.323Z,64.64
2023-03-12T17:30:31.461Z,65.18
2023-03-12T17:35:34.807Z,65.96
2023-03-12T17:40:42.555Z,66.50
2023-03-12T17:45:44.467Z,67.04
2023-03-12T17:50:46.349Z,66.63
2023-03-12T17:55:48.448Z,67.16
2023-03-12T18:00:50.312Z,67.36
2023-03-12T18:05:52.287Z,67.04
2023-03-12T18:10:54.886Z,66.53
2023-03-12T18:15:59.991Z,66.29
2023-03-12T18:21:01.812Z,67.19
2023-03-12T18:26:05.038Z,67.76
2023-03-12T18:31:06.751Z,68.04
2023-03-12T18:36:09.297Z,68.35
2023-03-12T18:41:13.418Z,68.12
2023-03-12T18:46:15.434Z,68.35
2023-03-12T18:51:17.693Z,68.32
2023-03-12T18:56:19.506Z,68.39
2023-03-12T19:01:21.456Z,68.67
2023-03-12T19:06:23.375Z,69.13
2023-03-12T19:11:26.021Z,69.18
2023-03-12T19:16:28.995Z,69.20
2023-03-12T19:21:31.008Z,69.21
2023-03-12T19:26:33.205Z,69.07
2023-03-12T19:31:35.074Z,69.50
2023-03-12T19:36:37.059Z,69.07
2023-03-12T19:41:40.372Z,69.08
2023-03-12T19:46:42.847Z,69.04
2023-03-12T19:51:44.726Z,69.11
2023-03-12T19:56:46.495Z,69.72
2023-03-12T20:01:48.410Z,70.25
2023-03-12T20:06:50.464Z,70.78
2023-03-12T20:11:52.351Z,70.95
2023-03-12T20:16:54.206Z,71.07
2023-03-12T20:21:56.799Z,71.61
2023-03-12T20:26:58.572Z,71.78
2023-03-12T20:32:00.575Z,71.78
2023-03-12T20:37:02.534Z,71.83
2023-03-12T20:42:04.619Z,72.08
2023-03-12T20:47:06.501Z,72.11
2023-03-12T20:52:08.377Z,72.14
2023-03-12T20:57:10.151Z,72.11
2023-03-12T21:02:14.480Z,72.24
2023-03-12T21:07:16.475Z,72.33
2023-03-12T21:12:18.469Z,72.61
2023-03-12T21:17:20.324Z,73.04
2023-03-12T21:22:22.103Z,73.24
2023-03-12T21:27:24.544Z,73.08
2023-03-12T21:32:27.077Z,73.06
2023-03-12T21:37:28.860Z,72.92
2023-03-12T21:42:33.093Z,73.12
2023-03-12T21:47:39.184Z,73.14
2023-03-12T21:52:47.087Z,73.25
2023-03-12T21:57:48.764Z,73.07
2023-03-12T22:02:53.295Z,73.06
2023-03-12T22:07:55.278Z,73.12
2023-03-12T22:12:56.955Z,73.11
2023-03-12T22:17:58.722Z,73.00
2023-03-12T22:23:00.942Z,73.22
2023-03-12T22:28:02.785Z,73.28
2023-03-12T22:33:04.594Z,73.33
2023-03-12T22:38:06.235Z,73.47
2023-03-12T22:43:08.636Z,73.68
2023-03-12T22:48:10.409Z,73.68
2023-03-12T22:53:12.170Z,73.86
2023-03-12T22:58:14.658Z,74.07
2023-03-12T23:03:16.336Z,74.25
2023-03-12T23:08:18.131Z,74.25
2023-03-12T23:13:20.909Z,74.17
2023-03-12T23:18:22.592Z,74.07
2023-03-12T23:23:24.356Z,74.18
2023-03-12T23:28:29.256Z,74.43
2023-03-12T23:33:33.512Z,74.52
2023-03-12T23:38:37.669Z,74.83
2023-03-12T23:43:40.160Z,75.01
2023-03-12T23:48:43.478Z,75.12
2023-03-12T23:53:48.336Z,75.24
2023-03-12T23:58:51.042Z,75.41
